TNCA

Aruba/Queen Beatrix International Airport

Airport
ICAO code
TNCA
Summary
ICAO Region
CARSAM
ICAO Territory
Location

Oranjestad, Aruba,

Coordinates
12° 30' 5" N , 70° 0' 55" W
KCC
Aw
Airport WX
Tropical Revolving Storm
Metar
Observation
TNCA 101400Z 09017KT 9999 SCT016 30/25 Q1015 NOSIG
Station
Queen Beatrix Airport
Date/Time
2022-08-10 14:00:00
Wind direction
90°
Wind speed
17 kts
Lowest cloud amount
scattered clouds
Temperature
30°C
Dew point
25°C
Humidity
74%
QNH
1015 hPa
Weather condition
n/a

Description

International airport serving the island of Aruba in the Lesser Antilles, Caribbean. (Netherlands)

Climatology

Tropical Savanna climate (Köppen climate classification Aw), rarely affected directly by tropical storms as it is on the southern fringe of the Atlantic/Caribbean Hurricane Belt.

Runways

Designator Length Width Surface Rops
11/29 2743 45 ASP Yes/Yes

Airport map

Aerial View

SKYbrary Partners:

Safety knowledge contributed by: